createdAt,value
2016-07-26T00:00:15.013Z,958.71
2016-07-26T00:01:13.128Z,958.70
2016-07-26T00:02:32.695Z,958.71
2016-07-26T00:03:35.600Z,958.66
2016-07-26T00:04:30.591Z,958.67
2016-07-26T00:05:14.097Z,958.68
2016-07-26T00:06:14.998Z,958.67
2016-07-26T00:07:14.395Z,958.71
2016-07-26T00:08:34.259Z,958.71
2016-07-26T00:09:31.355Z,958.67
2016-07-26T00:10:26.198Z,958.67
2016-07-26T00:11:22.083Z,958.69
2016-07-26T00:12:14.421Z,958.65
2016-07-26T00:13:13.655Z,958.65
2016-07-26T00:14:14.643Z,958.66
2016-07-26T00:15:17.663Z,958.66
2016-07-26T00:16:25.742Z,958.64
2016-07-26T00:17:37.270Z,958.65
2016-07-26T00:18:13.227Z,958.63
2016-07-26T00:19:22.000Z,958.62
2016-07-26T00:20:13.304Z,958.68
2016-07-26T00:21:34.183Z,958.64
2016-07-26T00:22:12.575Z,958.60
2016-07-26T00:23:35.324Z,958.61
2016-07-26T00:24:14.064Z,958.61
2016-07-26T00:25:33.327Z,958.60
2016-07-26T00:26:13.641Z,958.63
2016-07-26T00:27:32.570Z,958.63
2016-07-26T00:28:11.853Z,958.62
2016-07-26T00:29:20.589Z,958.65
2016-07-26T00:30:16.235Z,958.61
2016-07-26T00:31:38.747Z,958.65
2016-07-26T00:32:33.213Z,958.63
2016-07-26T00:33:28.004Z,958.62
2016-07-26T00:34:14.258Z,958.64
2016-07-26T00:35:12.675Z,958.62
2016-07-26T00:36:12.673Z,958.65
2016-07-26T00:37:17.472Z,958.65
2016-07-26T00:38:21.155Z,958.62
2016-07-26T00:39:29.554Z,958.65
2016-07-26T00:40:13.346Z,958.62
2016-07-26T00:41:34.787Z,958.60
2016-07-26T00:42:25.216Z,958.58
2016-07-26T00:43:20.563Z,958.56
2016-07-26T00:44:13.664Z,958.55
2016-07-26T00:45:12.411Z,958.55
2016-07-26T00:46:30.079Z,958.55
2016-07-26T00:47:23.653Z,958.52
2016-07-26T00:48:11.448Z,958.52
2016-07-26T00:49:31.262Z,958.55
2016-07-26T00:50:34.241Z,958.56
2016-07-26T00:51:28.025Z,958.55
2016-07-26T00:52:37.625Z,958.53
2016-07-26T00:53:14.512Z,958.53
2016-07-26T00:54:23.914Z,958.51
2016-07-26T00:55:23.038Z,958.48
2016-07-26T00:56:22.453Z,958.49
2016-07-26T00:57:38.545Z,958.48
2016-07-26T00:58:28.997Z,958.47
2016-07-26T00:59:37.321Z,958.49
2016-07-26T01:00:12.090Z,958.46
2016-07-26T01:01:12.298Z,958.45
2016-07-26T01:02:33.606Z,958.50
2016-07-26T01:03:23.735Z,958.47
2016-07-26T01:04:11.798Z,958.49
2016-07-26T01:05:13.372Z,958.44
2016-07-26T01:06:12.654Z,958.45
2016-07-26T01:07:25.900Z,958.42
2016-07-26T01:08:39.290Z,958.47
2016-07-26T01:09:16.754Z,958.46
2016-07-26T01:10:26.430Z,958.46
2016-07-26T01:11:27.307Z,958.41
2016-07-26T01:12:13.896Z,958.45
2016-07-26T01:13:13.073Z,958.45
2016-07-26T01:14:13.870Z,958.45
2016-07-26T01:15:24.039Z,958.44
2016-07-26T01:16:22.840Z,958.39
2016-07-26T01:17:15.736Z,958.43
2016-07-26T01:18:12.551Z,958.39
2016-07-26T01:19:28.032Z,958.37
2016-07-26T01:20:16.615Z,958.40
2016-07-26T01:21:25.372Z,958.41
2016-07-26T01:22:15.165Z,958.40
2016-07-26T01:23:15.414Z,958.42
2016-07-26T01:24:33.543Z,958.40
2016-07-26T01:25:19.148Z,958.45
2016-07-26T01:26:22.650Z,958.46
2016-07-26T01:27:13.327Z,958.44
2016-07-26T01:28:13.931Z,958.47
2016-07-26T01:29:12.984Z,958.43
2016-07-26T01:30:30.435Z,958.45
2016-07-26T01:31:14.488Z,958.48
2016-07-26T01:32:21.418Z,958.48
2016-07-26T01:33:11.183Z,958.52
2016-07-26T01:34:11.512Z,958.48
2016-07-26T01:35:28.808Z,958.46
2016-07-26T01:36:30.599Z,958.48
2016-07-26T01:37:13.842Z,958.47
2016-07-26T01:38:12.276Z,958.47
2016-07-26T01:39:21.450Z,958.45
2016-07-26T01:40:17.290Z,958.45
2016-07-26T01:41:14.929Z,958.43
2016-07-26T01:42:20.618Z,958.43
2016-07-26T01:43:13.957Z,958.43
2016-07-26T01:44:14.171Z,958.42
2016-07-26T01:45:13.475Z,958.42
2016-07-26T01:46:41.595Z,958.41
2016-07-26T01:47:11.384Z,958.42
2016-07-26T01:48:21.348Z,958.41
2016-07-26T01:49:13.835Z,958.38
2016-07-26T01:50:12.367Z,958.36
2016-07-26T01:51:26.691Z,958.38
2016-07-26T01:52:18.192Z,958.35
2016-07-26T01:53:14.827Z,958.37
2016-07-26T01:54:13.458Z,958.38
2016-07-26T01:55:13.740Z,958.38
2016-07-26T01:56:27.474Z,958.39
2016-07-26T01:57:17.750Z,958.39
2016-07-26T01:58:15.549Z,958.33
2016-07-26T01:59:17.656Z,958.33
2016-07-26T02:00:17.210Z,958.33
2016-07-26T02:01:12.788Z,958.37
2016-07-26T02:02:16.811Z,958.33
2016-07-26T02:03:15.490Z,958.32
2016-07-26T02:04:17.131Z,958.36
2016-07-26T02:05:14.108Z,958.35
2016-07-26T02:06:15.026Z,958.38
2016-07-26T02:07:11.621Z,958.38
2016-07-26T02:08:13.078Z,958.35
2016-07-26T02:09:33.274Z,958.34
2016-07-26T02:10:27.612Z,958.33
2016-07-26T02:11:22.478Z,958.32
2016-07-26T02:12:21.208Z,958.33
2016-07-26T02:13:24.400Z,958.34
2016-07-26T02:14:34.986Z,958.32
2016-07-26T02:15:14.593Z,958.33
2016-07-26T02:16:14.526Z,958.27
2016-07-26T02:17:12.962Z,958.32
2016-07-26T02:18:33.005Z,958.33
2016-07-26T02:19:14.471Z,958.28
2016-07-26T02:20:26.722Z,958.29
2016-07-26T02:21:13.101Z,958.33
2016-07-26T02:22:12.151Z,958.33
2016-07-26T02:23:22.209Z,958.32
2016-07-26T02:24:16.561Z,958.36
2016-07-26T02:25:15.970Z,958.32
2016-07-26T02:26:12.240Z,958.30
2016-07-26T02:27:14.097Z,958.32
2016-07-26T02:28:11.732Z,958.29
2016-07-26T02:29:26.577Z,958.32
2016-07-26T02:30:16.533Z,958.30
2016-07-26T02:31:22.934Z,958.29
2016-07-26T02:32:18.977Z,958.25
2016-07-26T02:33:28.009Z,958.26
2016-07-26T02:34:14.387Z,958.27
2016-07-26T02:35:13.974Z,958.29
2016-07-26T02:36:13.717Z,958.28
2016-07-26T02:37:14.355Z,958.27
2016-07-26T02:38:12.948Z,958.26
2016-07-26T02:39:21.789Z,958.28
2016-07-26T02:40:31.948Z,958.28
2016-07-26T02:41:12.682Z,958.28
2016-07-26T02:42:33.888Z,958.23
2016-07-26T02:43:26.393Z,958.23
2016-07-26T02:44:26.397Z,958.22
2016-07-26T02:45:14.704Z,958.22
2016-07-26T02:46:36.820Z,958.26
2016-07-26T02:47:15.516Z,958.25
2016-07-26T02:48:30.257Z,958.28
2016-07-26T02:49:13.401Z,958.29
2016-07-26T02:50:28.037Z,958.29
2016-07-26T02:51:22.073Z,958.27
2016-07-26T02:52:13.871Z,958.29
2016-07-26T02:53:22.474Z,958.29
2016-07-26T02:54:25.819Z,958.29
2016-07-26T02:55:19.430Z,958.30
2016-07-26T02:56:12.723Z,958.27
2016-07-26T02:57:12.096Z,958.29
2016-07-26T02:58:13.114Z,958.33
2016-07-26T02:59:22.868Z,958.33
2016-07-26T03:00:16.081Z,958.31
2016-07-26T03:01:13.606Z,958.33
2016-07-26T03:02:11.587Z,958.29
2016-07-26T03:03:11.804Z,958.26
2016-07-26T03:05:23.412Z,958.25
2016-07-26T03:06:12.952Z,958.25
2016-07-26T03:07:10.936Z,958.26
2016-07-26T03:08:33.570Z,958.29
2016-07-26T03:09:14.502Z,958.25
2016-07-26T03:10:22.259Z,958.28
2016-07-26T03:11:20.969Z,958.30
2016-07-26T03:12:27.462Z,958.28
2016-07-26T03:13:26.724Z,958.29
2016-07-26T03:14:32.820Z,958.30
2016-07-26T03:15:22.930Z,958.31
2016-07-26T03:16:17.643Z,958.33
2016-07-26T03:17:14.982Z,958.34
2016-07-26T03:18:15.335Z,958.37
2016-07-26T03:20:22.850Z,958.37
2016-07-26T03:21:17.393Z,958.39
2016-07-26T03:22:32.412Z,958.37
2016-07-26T03:23:13.421Z,958.37
2016-07-26T03:24:16.832Z,958.39
2016-07-26T03:25:33.849Z,958.38
2016-07-26T03:26:42.045Z,958.36
2016-07-26T03:27:28.138Z,958.32
2016-07-26T03:28:22.724Z,958.33
2016-07-26T03:29:15.489Z,958.34
2016-07-26T03:30:32.757Z,958.36
2016-07-26T03:31:27.971Z,958.39
2016-07-26T03:32:24.743Z,958.38
2016-07-26T03:33:14.134Z,958.39
2016-07-26T03:35:33.728Z,958.45
2016-07-26T03:36:13.946Z,958.40
2016-07-26T03:37:14.472Z,958.42
2016-07-26T03:38:24.441Z,958.41
2016-07-26T03:39:18.076Z,958.39
2016-07-26T03:40:24.695Z,958.38
2016-07-26T03:41:32.590Z,958.36
2016-07-26T03:42:12.018Z,958.43
2016-07-26T03:43:12.525Z,958.37
2016-07-26T03:44:15.149Z,958.42
2016-07-26T03:45:16.526Z,958.40
2016-07-26T03:46:36.807Z,958.41
2016-07-26T03:47:36.911Z,958.39
2016-07-26T03:48:35.012Z,958.39
2016-07-26T03:49:37.195Z,958.37
2016-07-26T03:50:26.767Z,958.39
2016-07-26T03:51:21.112Z,958.38
2016-07-26T03:52:12.965Z,958.39
2016-07-26T03:53:12.985Z,958.38
2016-07-26T03:54:23.547Z,958.39
2016-07-26T03:55:28.670Z,958.41
2016-07-26T03:56:14.050Z,958.43
2016-07-26T03:57:16.979Z,958.42
2016-07-26T03:58:32.195Z,958.47
2016-07-26T03:59:11.142Z,958.43
2016-07-26T04:00:26.540Z,958.45
2016-07-26T04:01:19.271Z,958.43
2016-07-26T04:02:14.718Z,958.43
2016-07-26T04:03:28.485Z,958.41
2016-07-26T04:05:27.127Z,958.43
2016-07-26T04:06:14.341Z,958.39
2016-07-26T04:07:19.539Z,958.41
2016-07-26T04:08:13.056Z,958.38
2016-07-26T04:09:12.069Z,958.39
2016-07-26T04:10:23.608Z,958.40
2016-07-26T04:11:26.349Z,958.40
2016-07-26T04:12:21.216Z,958.44
2016-07-26T04:13:21.632Z,958.41
2016-07-26T04:14:19.078Z,958.45
2016-07-26T04:15:12.751Z,958.48
2016-07-26T04:16:14.028Z,958.51
2016-07-26T04:17:37.832Z,958.52
2016-07-26T04:18:13.065Z,958.54
2016-07-26T04:19:32.162Z,958.55
2016-07-26T04:20:33.255Z,958.53
2016-07-26T04:21:21.768Z,958.51
2016-07-26T04:22:14.115Z,958.55
2016-07-26T04:23:31.602Z,958.53
2016-07-26T04:24:19.532Z,958.56
2016-07-26T04:25:15.174Z,958.54
2016-07-26T04:26:14.161Z,958.54
2016-07-26T04:27:13.370Z,958.53
2016-07-26T04:28:14.289Z,958.55
2016-07-26T04:29:13.397Z,958.49
2016-07-26T04:30:14.089Z,958.50
2016-07-26T04:31:13.852Z,958.50
2016-07-26T04:32:12.042Z,958.50
2016-07-26T04:33:13.519Z,958.52
2016-07-26T04:34:27.723Z,958.53
2016-07-26T04:35:24.560Z,958.51
2016-07-26T04:36:21.756Z,958.57
2016-07-26T04:37:38.331Z,958.52
2016-07-26T04:38:29.125Z,958.52
2016-07-26T04:39:22.304Z,958.51
2016-07-26T04:40:14.046Z,958.51
2016-07-26T04:41:26.897Z,958.52
2016-07-26T04:42:12.661Z,958.51
2016-07-26T04:43:20.580Z,958.51
2016-07-26T04:44:12.982Z,958.53
2016-07-26T04:45:13.417Z,958.55
2016-07-26T04:46:11.888Z,958.55
2016-07-26T04:47:16.352Z,958.56
2016-07-26T04:48:34.053Z,958.56
2016-07-26T04:49:32.864Z,958.54
2016-07-26T04:50:14.342Z,958.56
2016-07-26T04:51:18.364Z,958.55
2016-07-26T04:52:12.635Z,958.55
2016-07-26T04:53:31.918Z,958.56
2016-07-26T04:54:26.572Z,958.56
2016-07-26T04:55:26.487Z,958.56
2016-07-26T04:56:28.111Z,958.58
2016-07-26T04:57:15.491Z,958.59
2016-07-26T04:58:16.326Z,958.59
2016-07-26T04:59:13.723Z,958.57
2016-07-26T05:00:13.555Z,958.59
2016-07-26T05:01:19.731Z,958.58
2016-07-26T05:02:23.985Z,958.59
2016-07-26T05:03:16.041Z,958.59
2016-07-26T05:04:36.366Z,958.61
2016-07-26T05:05:17.688Z,958.67
2016-07-26T05:06:16.242Z,958.65
2016-07-26T05:07:22.484Z,958.62
2016-07-26T05:08:13.020Z,958.62
2016-07-26T05:09:18.806Z,958.64
2016-07-26T05:10:14.270Z,958.60
2016-07-26T05:11:33.210Z,958.60
2016-07-26T05:12:17.354Z,958.56
2016-07-26T05:13:18.639Z,958.61
2016-07-26T05:14:30.810Z,958.54
2016-07-26T05:15:23.700Z,958.54
2016-07-26T05:16:18.469Z,958.53
2016-07-26T05:17:25.576Z,958.51
2016-07-26T05:18:14.110Z,958.52
2016-07-26T05:20:32.040Z,958.51
2016-07-26T05:21:22.939Z,958.53
2016-07-26T05:22:13.848Z,958.49
2016-07-26T05:23:14.120Z,958.52
2016-07-26T05:24:32.300Z,958.52
2016-07-26T05:25:14.619Z,958.50
2016-07-26T05:26:19.185Z,958.49
2016-07-26T05:27:13.551Z,958.47
2016-07-26T05:28:12.621Z,958.48
2016-07-26T05:29:13.452Z,958.49
2016-07-26T05:30:13.310Z,958.50
2016-07-26T05:31:14.860Z,958.47
2016-07-26T05:32:33.249Z,958.52
2016-07-26T05:33:13.846Z,958.52
2016-07-26T05:34:14.758Z,958.54
2016-07-26T05:35:24.528Z,958.54
2016-07-26T05:36:15.872Z,958.57
2016-07-26T05:37:32.516Z,958.55
2016-07-26T05:38:32.791Z,958.58
2016-07-26T05:39:20.584Z,958.61
2016-07-26T05:40:20.470Z,958.59
2016-07-26T05:41:13.753Z,958.64
2016-07-26T05:42:22.601Z,958.59
2016-07-26T05:43:16.403Z,958.59
2016-07-26T05:44:13.538Z,958.62
2016-07-26T05:45:35.984Z,958.64
2016-07-26T05:46:19.960Z,958.65
2016-07-26T05:47:15.051Z,958.63
2016-07-26T05:48:26.821Z,958.64
2016-07-26T05:50:15.644Z,958.68
2016-07-26T05:51:14.949Z,958.66
2016-07-26T05:52:20.879Z,958.63
2016-07-26T05:53:12.996Z,958.65
2016-07-26T05:54:16.251Z,958.67
2016-07-26T05:55:12.552Z,958.69
2016-07-26T05:56:17.885Z,958.67
2016-07-26T05:57:26.174Z,958.69
2016-07-26T05:58:17.525Z,958.70
2016-07-26T05:59:14.384Z,958.69
2016-07-26T06:00:23.508Z,958.69
2016-07-26T06:01:33.674Z,958.67
2016-07-26T06:02:18.845Z,958.69
2016-07-26T06:03:27.555Z,958.64
2016-07-26T06:04:33.391Z,958.66
2016-07-26T06:05:16.088Z,958.68
2016-07-26T06:06:26.966Z,958.62
2016-07-26T06:07:33.460Z,958.62
2016-07-26T06:08:30.809Z,958.70
2016-07-26T06:09:10.739Z,958.69
2016-07-26T06:10:28.699Z,958.67
2016-07-26T06:11:13.898Z,958.66
2016-07-26T06:12:14.093Z,958.66
2016-07-26T06:13:33.230Z,958.67
2016-07-26T06:14:15.879Z,958.65
2016-07-26T06:15:12.646Z,958.67
2016-07-26T06:16:21.649Z,958.64
2016-07-26T06:17:24.321Z,958.67
2016-07-26T06:18:33.507Z,958.66
2016-07-26T06:19:40.811Z,958.64
2016-07-26T06:20:21.126Z,958.66
2016-07-26T06:21:22.948Z,958.68
2016-07-26T06:22:21.940Z,958.68
2016-07-26T06:23:16.465Z,958.67
2016-07-26T06:24:11.540Z,958.66
2016-07-26T06:25:22.737Z,958.73
2016-07-26T06:26:17.330Z,958.73
2016-07-26T06:27:14.381Z,958.74
2016-07-26T06:28:42.403Z,958.71
2016-07-26T06:29:17.126Z,958.73
2016-07-26T06:30:14.183Z,958.74
2016-07-26T06:31:14.227Z,958.76
2016-07-26T06:32:19.358Z,958.73
2016-07-26T06:33:26.971Z,958.76
2016-07-26T06:34:14.683Z,958.76
2016-07-26T06:35:21.642Z,958.76
2016-07-26T06:36:14.273Z,958.74
2016-07-26T06:37:13.538Z,958.73
2016-07-26T06:38:32.151Z,958.72
2016-07-26T06:39:33.454Z,958.70
2016-07-26T06:40:12.474Z,958.71
2016-07-26T06:41:28.538Z,958.70
2016-07-26T06:42:16.815Z,958.71
2016-07-26T06:43:16.747Z,958.72
2016-07-26T06:44:33.232Z,958.76
2016-07-26T06:45:22.420Z,958.77
2016-07-26T06:46:27.012Z,958.70
2016-07-26T06:47:14.114Z,958.67
2016-07-26T06:48:13.695Z,958.70
2016-07-26T06:49:39.920Z,958.66
2016-07-26T06:50:26.317Z,958.68
2016-07-26T06:51:11.996Z,958.70
2016-07-26T06:52:13.500Z,958.72
2016-07-26T06:53:13.225Z,958.71
2016-07-26T06:54:12.615Z,958.70
2016-07-26T06:55:15.404Z,958.73
2016-07-26T06:56:32.797Z,958.72
2016-07-26T06:57:27.056Z,958.73
2016-07-26T06:58:22.845Z,958.73
2016-07-26T06:59:27.425Z,958.71
2016-07-26T07:00:37.827Z,958.68
2016-07-26T07:01:12.886Z,958.73
2016-07-26T07:02:30.978Z,958.75
2016-07-26T07:03:27.757Z,958.72
2016-07-26T07:04:35.785Z,958.73
2016-07-26T07:05:37.648Z,958.75
2016-07-26T07:06:24.917Z,958.71
2016-07-26T07:07:33.518Z,958.69
2016-07-26T07:08:21.810Z,958.71
2016-07-26T07:09:29.438Z,958.63
2016-07-26T07:10:13.283Z,958.67
2016-07-26T07:11:13.915Z,958.70
2016-07-26T07:12:12.231Z,958.68
2016-07-26T07:13:37.376Z,958.63
2016-07-26T07:14:14.984Z,958.66
2016-07-26T07:15:28.659Z,958.65
2016-07-26T07:16:16.399Z,958.64
2016-07-26T07:17:12.399Z,958.65
2016-07-26T07:18:16.454Z,958.61
2016-07-26T07:20:24.369Z,958.62
2016-07-26T07:21:23.551Z,958.62
2016-07-26T07:22:12.759Z,958.61
2016-07-26T07:23:24.242Z,958.58
2016-07-26T07:24:19.653Z,958.62
2016-07-26T07:25:28.010Z,958.57
2016-07-26T07:26:34.975Z,958.59
2016-07-26T07:27:23.616Z,958.60
2016-07-26T07:28:32.515Z,958.58
2016-07-26T07:29:12.196Z,958.58
2016-07-26T07:30:13.570Z,958.55
2016-07-26T07:31:25.044Z,958.60
2016-07-26T07:32:11.520Z,958.60
2016-07-26T07:33:36.379Z,958.56
2016-07-26T07:35:33.356Z,958.55
2016-07-26T07:36:13.133Z,958.53
2016-07-26T07:37:28.414Z,958.53
2016-07-26T07:38:12.963Z,958.53
2016-07-26T07:39:09.940Z,958.53
2016-07-26T07:40:20.898Z,958.57
2016-07-26T07:41:32.945Z,958.57
2016-07-26T07:42:13.485Z,958.50
2016-07-26T07:43:38.165Z,958.54
2016-07-26T07:44:19.881Z,958.54
2016-07-26T07:45:13.097Z,958.53
2016-07-26T07:46:38.354Z,958.55
2016-07-26T07:47:12.915Z,958.55
2016-07-26T07:48:12.179Z,958.55
2016-07-26T07:49:13.756Z,958.56
2016-07-26T07:50:25.174Z,958.52
2016-07-26T07:51:22.758Z,958.58
2016-07-26T07:52:13.204Z,958.56
2016-07-26T07:53:12.399Z,958.60
2016-07-26T07:54:14.936Z,958.64
2016-07-26T07:55:12.057Z,958.61
2016-07-26T07:56:13.735Z,958.62
2016-07-26T07:57:12.658Z,958.63
2016-07-26T07:58:13.439Z,958.60
2016-07-26T07:59:13.700Z,958.56
2016-07-26T08:00:14.582Z,958.58
2016-07-26T08:01:38.550Z,958.53
2016-07-26T08:02:33.273Z,958.56
2016-07-26T08:03:31.785Z,958.56
2016-07-26T08:04:27.356Z,958.53
2016-07-26T08:05:33.099Z,958.55
2016-07-26T08:06:31.784Z,958.56
2016-07-26T08:07:20.061Z,958.58
2016-07-26T08:08:14.356Z,958.58
2016-07-26T08:09:14.323Z,958.45
2016-07-26T08:10:10.497Z,958.57
2016-07-26T08:11:15.154Z,958.58
2016-07-26T08:12:14.001Z,958.56
2016-07-26T08:13:13.111Z,958.56
2016-07-26T08:14:12.886Z,958.54
2016-07-26T08:15:28.728Z,958.53
2016-07-26T08:16:33.397Z,958.57
2016-07-26T08:17:31.805Z,958.57
2016-07-26T08:18:32.223Z,958.55
2016-07-26T08:19:16.535Z,958.59
2016-07-26T08:20:16.714Z,958.55
2016-07-26T08:21:15.865Z,958.56
2016-07-26T08:22:17.551Z,958.58
2016-07-26T08:23:15.194Z,958.53
2016-07-26T08:24:17.663Z,958.54
2016-07-26T08:25:14.972Z,958.56
2016-07-26T08:26:15.815Z,958.53
2016-07-26T08:27:15.865Z,958.52
2016-07-26T08:28:15.108Z,958.52
2016-07-26T08:29:16.691Z,958.51
2016-07-26T08:30:15.557Z,958.48
2016-07-26T08:31:15.817Z,958.55
2016-07-26T08:32:16.075Z,958.52
2016-07-26T08:33:15.353Z,958.46
2016-07-26T08:34:16.463Z,958.48
2016-07-26T08:35:15.964Z,958.45
2016-07-26T08:36:15.475Z,958.43
2016-07-26T08:37:16.295Z,958.42
2016-07-26T08:38:15.696Z,958.42
2016-07-26T08:39:15.417Z,958.45
2016-07-26T08:40:15.872Z,958.44
2016-07-26T08:41:15.930Z,958.41
2016-07-26T08:42:17.872Z,958.47
2016-07-26T08:43:16.134Z,958.52
2016-07-26T08:44:18.040Z,958.46
2016-07-26T08:45:16.081Z,958.46
2016-07-26T08:46:15.994Z,958.44
2016-07-26T08:47:15.714Z,958.44
2016-07-26T08:48:16.175Z,958.41
2016-07-26T08:49:13.149Z,958.44
2016-07-26T08:50:16.066Z,958.38
2016-07-26T08:51:13.538Z,958.39
2016-07-26T08:52:13.417Z,958.41
2016-07-26T08:53:17.280Z,958.38
2016-07-26T08:54:13.006Z,958.41
2016-07-26T08:55:12.805Z,958.42
2016-07-26T08:56:13.370Z,958.43
2016-07-26T08:57:13.469Z,958.39
2016-07-26T08:58:12.519Z,958.46
2016-07-26T08:59:16.569Z,958.42
2016-07-26T09:00:14.982Z,958.46
2016-07-26T09:01:12.744Z,958.42
2016-07-26T09:02:12.119Z,958.43
2016-07-26T09:03:14.222Z,958.44
2016-07-26T09:04:13.213Z,958.43
2016-07-26T09:05:12.842Z,958.41
2016-07-26T09:06:13.115Z,958.38
2016-07-26T09:07:13.586Z,958.37
2016-07-26T09:08:12.996Z,958.41
2016-07-26T09:09:13.092Z,958.40
2016-07-26T09:10:25.250Z,958.38
2016-07-26T09:11:10.747Z,958.39
2016-07-26T09:12:19.388Z,958.36
2016-07-26T09:13:27.055Z,958.34
2016-07-26T09:14:26.218Z,958.32
2016-07-26T09:15:21.655Z,958.32
2016-07-26T09:16:13.107Z,958.36
2016-07-26T09:17:12.569Z,958.34
2016-07-26T09:18:17.084Z,958.33
2016-07-26T09:19:12.619Z,958.35
2016-07-26T09:20:19.638Z,958.27
2016-07-26T09:21:20.158Z,958.31
2016-07-26T09:22:15.610Z,958.27
2016-07-26T09:23:14.751Z,958.28
2016-07-26T09:24:12.955Z,958.28
2016-07-26T09:25:34.291Z,958.29
2016-07-26T09:26:17.053Z,958.28
2016-07-26T09:27:22.383Z,958.29
2016-07-26T09:28:16.335Z,958.30
2016-07-26T09:29:14.102Z,958.34
2016-07-26T09:30:13.422Z,958.31
2016-07-26T09:31:17.923Z,958.33
2016-07-26T09:32:12.075Z,958.32
2016-07-26T09:33:12.252Z,958.34
2016-07-26T09:34:14.109Z,958.36
2016-07-26T09:35:21.676Z,958.35
2016-07-26T09:36:17.142Z,958.31
2016-07-26T09:37:25.612Z,958.31
2016-07-26T09:38:13.044Z,958.32
2016-07-26T09:39:17.862Z,958.28
2016-07-26T09:40:13.693Z,958.30
2016-07-26T09:41:21.963Z,958.28
2016-07-26T09:42:15.437Z,958.30
2016-07-26T09:43:26.306Z,958.35
2016-07-26T09:44:32.819Z,958.32
2016-07-26T09:45:19.419Z,958.34
2016-07-26T09:46:32.380Z,958.37
2016-07-26T09:47:14.520Z,958.38
2016-07-26T09:48:16.746Z,958.36
2016-07-26T09:49:15.402Z,958.38
2016-07-26T09:50:16.746Z,958.36
2016-07-26T09:51:13.674Z,958.45
2016-07-26T09:52:14.767Z,958.46
2016-07-26T09:53:14.968Z,958.44
2016-07-26T09:54:15.487Z,958.43
2016-07-26T09:55:16.271Z,958.46
2016-07-26T09:56:16.418Z,958.44
2016-07-26T09:57:15.540Z,958.39
2016-07-26T09:58:15.314Z,958.41
2016-07-26T09:59:15.516Z,958.38
2016-07-26T10:00:15.971Z,958.34
2016-07-26T10:01:17.826Z,958.39
2016-07-26T10:02:15.396Z,958.33
2016-07-26T10:03:16.366Z,958.34
2016-07-26T10:04:15.777Z,958.32
2016-07-26T10:05:16.027Z,958.32
2016-07-26T10:06:15.204Z,958.29
2016-07-26T10:07:15.154Z,958.30
2016-07-26T10:08:15.570Z,958.30
2016-07-26T10:09:14.701Z,958.29
2016-07-26T10:10:14.930Z,958.31
2016-07-26T10:11:15.906Z,958.30
2016-07-26T10:12:15.470Z,958.33
2016-07-26T10:13:16.273Z,958.29
2016-07-26T10:14:15.623Z,958.30
2016-07-26T10:15:15.898Z,958.31
2016-07-26T10:16:15.355Z,958.32
2016-07-26T10:17:16.446Z,958.35
2016-07-26T10:18:16.238Z,958.34
2016-07-26T10:19:15.577Z,958.40
2016-07-26T10:20:15.945Z,958.41
2016-07-26T10:21:15.338Z,958.39
2016-07-26T10:22:16.131Z,958.34
2016-07-26T10:23:17.066Z,958.34
2016-07-26T10:24:16.108Z,958.34
2016-07-26T10:25:16.391Z,958.29
2016-07-26T10:26:18.047Z,958.30
2016-07-26T10:27:16.293Z,958.32
2016-07-26T10:28:15.696Z,958.31
2016-07-26T10:29:15.745Z,958.28
2016-07-26T10:30:16.449Z,958.31
2016-07-26T10:31:15.103Z,958.31
2016-07-26T10:32:15.753Z,958.35
2016-07-26T10:33:15.358Z,958.33
2016-07-26T10:34:16.019Z,958.37
2016-07-26T10:35:16.307Z,958.32
2016-07-26T10:36:15.684Z,958.35
2016-07-26T10:37:16.004Z,958.37
2016-07-26T10:38:15.304Z,958.30
2016-07-26T10:39:16.976Z,958.34
2016-07-26T10:40:15.439Z,958.34
2016-07-26T10:41:15.478Z,958.41
2016-07-26T10:42:15.255Z,958.41
2016-07-26T10:43:15.293Z,958.42
2016-07-26T10:44:16.028Z,958.36
2016-07-26T10:45:15.324Z,958.41
2016-07-26T10:46:15.158Z,958.37
2016-07-26T10:47:16.108Z,958.37
2016-07-26T10:48:17.194Z,958.38
2016-07-26T10:49:15.367Z,958.32
2016-07-26T10:50:15.706Z,958.30
2016-07-26T10:51:15.944Z,958.25
2016-07-26T10:52:15.817Z,958.22
2016-07-26T10:53:17.291Z,958.21
2016-07-26T10:54:16.626Z,958.22
2016-07-26T10:55:15.553Z,958.19
2016-07-26T10:56:15.745Z,958.17
2016-07-26T10:57:16.918Z,958.14
2016-07-26T10:58:15.419Z,958.15
2016-07-26T10:59:15.713Z,958.14
2016-07-26T11:00:15.435Z,958.10
2016-07-26T11:01:15.288Z,958.10
2016-07-26T11:02:15.193Z,958.11
2016-07-26T11:03:18.231Z,958.05
2016-07-26T11:04:15.837Z,958.07
2016-07-26T11:05:15.875Z,958.04
2016-07-26T11:06:15.525Z,958.09
2016-07-26T11:07:13.453Z,958.04
2016-07-26T11:08:16.749Z,958.01
2016-07-26T11:09:15.610Z,957.98
2016-07-26T11:10:15.955Z,957.96
2016-07-26T11:11:15.406Z,957.93
2016-07-26T11:12:14.375Z,957.95
2016-07-26T11:13:15.866Z,957.95
2016-07-26T11:14:15.787Z,957.91
2016-07-26T11:15:17.568Z,957.92
2016-07-26T11:16:15.459Z,957.88
2016-07-26T11:17:15.598Z,957.79
2016-07-26T11:18:16.636Z,957.77
2016-07-26T11:19:15.179Z,957.83
2016-07-26T11:21:12.839Z,957.77
2016-07-26T11:22:15.145Z,957.77
2016-07-26T11:23:15.556Z,957.76
2016-07-26T11:24:14.963Z,957.78
2016-07-26T11:25:15.364Z,957.76
2016-07-26T11:26:16.772Z,957.48
2016-07-26T11:27:14.727Z,957.79
2016-07-26T11:28:18.068Z,957.80
2016-07-26T11:29:18.395Z,957.82
2016-07-26T11:30:15.963Z,957.78
2016-07-26T11:31:17.754Z,957.62
2016-07-26T11:32:19.233Z,957.81
2016-07-26T11:33:15.135Z,957.80
2016-07-26T11:34:16.653Z,957.82
2016-07-26T11:35:15.966Z,957.83
2016-07-26T11:36:15.058Z,957.78
2016-07-26T11:38:17.735Z,957.77
2016-07-26T11:39:15.389Z,957.78
2016-07-26T11:40:16.678Z,957.79
2016-07-26T11:41:16.658Z,957.47
2016-07-26T11:42:17.468Z,957.69
2016-07-26T11:43:16.695Z,957.69
2016-07-26T11:44:16.103Z,957.66
2016-07-26T11:45:16.146Z,957.60
2016-07-26T11:46:16.536Z,957.62
2016-07-26T11:47:18.471Z,957.62
2016-07-26T11:48:15.448Z,957.61
2016-07-26T11:50:15.865Z,957.66
2016-07-26T11:51:16.806Z,957.66
2016-07-26T11:52:15.874Z,957.67
2016-07-26T11:53:15.787Z,957.66
2016-07-26T11:54:16.254Z,957.70
2016-07-26T11:55:15.998Z,957.67
2016-07-26T11:56:22.464Z,957.66
2016-07-26T11:57:16.254Z,957.64
2016-07-26T11:58:16.610Z,957.30
2016-07-26T11:59:15.824Z,957.65
2016-07-26T12:00:15.990Z,957.65
2016-07-26T12:01:15.682Z,957.66
2016-07-26T12:02:15.227Z,957.69
2016-07-26T12:03:15.383Z,957.66
2016-07-26T12:05:16.379Z,957.77
2016-07-26T12:06:16.417Z,957.77
2016-07-26T12:07:16.717Z,957.74
2016-07-26T12:08:13.430Z,957.78
2016-07-26T12:09:17.280Z,957.73
2016-07-26T12:10:15.517Z,957.75
2016-07-26T12:11:17.014Z,957.79
2016-07-26T12:12:16.334Z,957.79
2016-07-26T12:13:19.413Z,957.85
2016-07-26T12:14:16.948Z,957.85
2016-07-26T12:15:16.077Z,957.85
2016-07-26T12:16:17.020Z,957.46
2016-07-26T12:17:13.958Z,957.81
2016-07-26T12:18:22.953Z,957.84
2016-07-26T12:19:15.816Z,957.89
2016-07-26T12:20:16.504Z,957.87
2016-07-26T12:21:13.992Z,957.89
2016-07-26T12:22:15.944Z,957.91
2016-07-26T12:23:16.684Z,957.82
2016-07-26T12:24:15.964Z,957.87
2016-07-26T12:25:16.181Z,957.88
2016-07-26T12:26:17.249Z,957.91
2016-07-26T12:27:13.585Z,957.93
2016-07-26T12:28:15.569Z,957.89
2016-07-26T12:29:17.340Z,957.65
2016-07-26T12:30:16.830Z,957.97
2016-07-26T12:31:18.943Z,957.71
2016-07-26T12:32:16.648Z,958.02
2016-07-26T12:33:15.777Z,957.99
2016-07-26T12:34:15.385Z,957.97
2016-07-26T12:35:17.278Z,957.96
2016-07-26T12:36:15.084Z,957.99
2016-07-26T12:37:13.861Z,958.01
2016-07-26T12:38:16.614Z,958.05
2016-07-26T12:39:18.802Z,958.01
2016-07-26T12:40:13.633Z,958.06